• Join FlightAware (Why Join?)
  • Login
  • US Flag 
06:08AM EDT


 

Airport Tracker/Info


-or-


 

Live Flight TrackerFlight Track Log ✈ UAL1020 ✈ 25-06-2013 ✈ KIAH - MMUN / CUN

Flight Track Log - Related Links

Times and Time Zones

All times are in EDT time to prevent confusion due to time zone crossing. See the UAL1020 flight status page for this flight to view local times or setup timezone preferences in your user account.

Time Position Orientation Groundspeed Altitude Reporting Facility
EDT Latitude Longitude Course Direction KTS MPH feet Rate Location/Type
05:15PM 29.9562 -95.3369 139° Southeast 172 198 900  Level FlightAware ADS-B
05:15PM 29.9541 -95.3343 133° Southeast 176 203 1,100 1,560 Climbing FlightAware ADS-B
05:15PM 29.9480 -95.3261 131° Southeast 188 216 1,300 1,620 Climbing FlightAware ADS-B
05:15PM 29.9368 -95.3115 132° Southeast 199 229 1,900 1,740 Climbing FlightAware ADS-B
05:15PM 29.9271 -95.2990 132° Southeast 215 247 2,300 1,260 Climbing FlightAware ADS-B
05:16PM 29.9221 -95.2926 132° Southeast 226 260 2,400 1,860 Climbing FlightAware ADS-B
05:16PM 29.9038 -95.2688 132° Southeast 242 278 3,300 1,860 Climbing FlightAware ADS-B
05:16PM 29.8914 -95.2530 132° Southeast 261 300 3,700 1,140 Climbing FlightAware ADS-B
05:16PM 29.8786 -95.2372 133° Southeast 267 307 3,900 360 Climbing FlightAware ADS-B
05:17PM 29.8670 -95.2229 133° Southeast 269 310 3,900 180 Level FlightAware ADS-B
05:17PM 29.8544 -95.2069 132° Southeast 267 307 4,000 600 Climbing FlightAware ADS-B
05:17PM 29.8504 -95.2022 134° Southeast 264 304 4,100 1,320 Climbing FlightAware ADS-B
05:17PM 29.8466 -95.1981 137° Southeast 261 300 4,200 1,320 Climbing FlightAware ADS-B
05:17PM 29.8429 -95.1947 141° Southeast 260 299 4,300 2,220 Climbing FlightAware ADS-B
05:17PM 29.8388 -95.1914 145° Southeast 261 300 4,500 2,640 Climbing FlightAware ADS-B
05:17PM 29.8338 -95.1878 148° Southeast 261 300 4,700 2,520 Climbing FlightAware ADS-B
05:17PM 29.8244 -95.1816 150° Southeast 263 303 5,100 2,820 Climbing FlightAware ADS-B
05:18PM 29.8083 -95.1721 153° Southeast 267 307 5,800 2,700 Climbing FlightAware ADS-B
05:18PM 29.7900 -95.1616 154° Southeast 269 310 6,500 2,760 Climbing FlightAware ADS-B
05:18PM 29.7731 -95.1519 154° Southeast 268 308 7,300 2,880 Climbing FlightAware ADS-B
05:18PM 29.7556 -95.1418 153° Southeast 273 314 8,000 2,280 Climbing FlightAware ADS-B
05:19PM 29.7377 -95.1313 153° Southeast 282 325 8,500 2,100 Climbing FlightAware ADS-B
05:19PM 29.7191 -95.1207 154° Southeast 289 333 9,100 2,280 Climbing FlightAware ADS-B
05:19PM 29.7010 -95.1104 154° Southeast 292 336 9,700 1,980 Climbing FlightAware ADS-B
05:20PM 29.6632 -95.0890 154° Southeast 313 360 10,600 1,500 Climbing FlightAware ADS-B
05:20PM 29.6216 -95.0655 154° Southeast 346 398 11,200 1,800 Climbing FlightAware ADS-B
05:21PM 29.5785 -95.0412 154° Southeast 355 409 12,400 2,340 Climbing FlightAware ADS-B
05:21PM 29.5234 -95.0102 154° Southeast 361 415 13,800 2,160 Climbing FlightAware ADS-B
05:22PM 29.4756 -94.9833 154° Southeast 373 429 14,900 2,220 Climbing FlightAware ADS-B
05:22PM 29.4282 -94.9568 154° Southeast 377 434 16,100 2,220 Climbing FlightAware ADS-B
05:23PM 29.3793 -94.9293 154° Southeast 382 440 17,200 2,160 Climbing FlightAware ADS-B
05:23PM 29.3309 -94.9022 154° Southeast 386 444 18,300 2,040 Climbing FlightAware ADS-B
05:24PM 29.2970 -94.8829 154° Southeast 389 448 19,000 1,800 Climbing FlightAware ADS-B
05:24PM 29.2844 -94.8737 148° Southeast 391 450 19,200 1,740 Climbing FlightAware ADS-B
05:24PM 29.2718 -94.8617 140° Southeast 394 453 19,500 1,860 Climbing FlightAware ADS-B
05:24PM 29.2588 -94.8454 132° Southeast 395 455 19,800 1,620 Climbing FlightAware ADS-B
05:24PM 29.2502 -94.8313 125° Southeast 397 457 20,000 1,560 Climbing FlightAware ADS-B
05:26PM 29.1824 -94.7026 121° Southeast 415 478 21,900 1,680 Climbing FlightAware ADS-B
05:26PM 29.1360 -94.6340 128° Southeast 419 482 23,100 1,620 Climbing FlightAware
05:27PM 29.0880 -94.5650 129° Southeast 426 490 24,100 1,020 Climbing FlightAware
05:28PM 29.0280 -94.4790 129° Southeast 432 497 24,700 300 Climbing FlightAware
05:29PM 28.9660 -94.3890 128° Southeast 432 497 24,700  Level FlightAware
05:29PM 28.9270 -94.3320 128° Southeast 432 497 24,700 2,160 Level FlightAware
05:31PM 28.7861 -94.1413 130° Southeast 467 537 28,900 2,880 Climbing FlightAware ADS-B
05:31PM 28.7711 -94.1204 129° Southeast 469 540 29,100 960 Climbing FlightAware ADS-B
05:32PM 28.7030 -94.0253 129° Southeast 471 542 29,900 1,200 Climbing FlightAware ADS-B
05:34PM 28.4835 -93.7221 129° Southeast 471 542 33,300 1,200 Climbing FlightAware ADS-B
05:35PM 28.3981 -93.6039 129° Southeast 471 542 34,300 960 Climbing FlightAware ADS-B
05:36PM 28.3445 -93.5295 129° Southeast 468 539 35,000 600 Climbing FlightAware ADS-B
05:36PM 28.3144 -93.4881 129° Southeast 467 537 35,000  Level Houston Center
05:37PM 28.2322 -93.3739 129° Southeast 468 539 35,000  Level Houston Center
05:39PM 28.1497 -93.2597 129° Southeast 467 537 35,000  Level Houston Center
05:40PM 28.0650 -93.1450 130° Southeast 466 536 35,000 -60 Level Houston Center
05:41PM 27.9664 -93.0106 130° Southeast 464 534 34,900  Descending Houston Center
05:42PM 27.8847 -92.8978 129° Southeast 464 534 35,000  Climbing Houston Center
05:43PM 27.8022 -92.7867 130° Southeast 463 533 35,000  Level Houston Center
05:44PM 27.7194 -92.6764 130° Southeast 462 532 35,000  Level Houston Center
05:45PM 27.6350 -92.5658 131° Southeast 466 536 35,000  Level Houston Center
05:46PM 27.5517 -92.4528 130° Southeast 470 541 35,000  Level Houston Center
05:47PM 27.4514 -92.3158 130° Southeast 472 543 35,000  Level Houston Center
05:48PM 27.3675 -92.2047 130° Southeast 469 540 35,000  Level Houston Center
05:49PM 27.2825 -92.0922 130° Southeast 471 542 35,000  Level Houston Center
05:50PM 27.1986 -91.9825 131° Southeast 468 539 35,000  Level Houston Center
05:51PM 27.0992 -91.8861 139° Southeast 476 548 35,000  Level Houston Center
05:53PM 26.9475 -91.7633 144° Southeast  Level FlightAware Approximate
06:00PM 26.2737 -91.2278 147° Southeast  Level FlightAware Approximate
06:01PM 26.1748 -91.1559 147° Southeast  Level FlightAware Approximate
06:02PM 26.0787 -91.0795 144° Southeast  Level FlightAware Approximate
06:03PM 25.9827 -91.0030 145° Southeast  Level FlightAware Approximate
06:04PM 25.8864 -90.9270 145° Southeast  Level FlightAware Approximate
06:05PM 25.7900 -90.8511 145° Southeast  Level FlightAware Approximate
06:06PM 25.6936 -90.7754 145° Southeast  Level FlightAware Approximate
06:07PM 25.5972 -90.6998 145° Southeast  Level FlightAware Approximate
06:08PM 25.5007 -90.6243 145° Southeast  Level FlightAware Approximate
06:09PM 25.4042 -90.5489 145° Southeast  Level FlightAware Approximate
06:10PM 25.3076 -90.4737 145° Southeast  Level FlightAware Approximate
06:11PM 25.2110 -90.3986 145° Southeast  Level FlightAware Approximate
06:12PM 25.1144 -90.3235 145° Southeast  Level FlightAware Approximate
06:13PM 25.0177 -90.2486 145° Southeast  Level FlightAware Approximate
06:14PM 24.9210 -90.1739 145° Southeast  Level FlightAware Approximate
06:15PM 24.8243 -90.0992 145° Southeast  Level FlightAware Approximate
06:16PM 24.7275 -90.0247 145° Southeast  Level FlightAware Approximate
06:17PM 24.6307 -89.9502 145° Southeast  Level FlightAware Approximate
06:18PM 24.5338 -89.8759 145° Southeast  Level FlightAware Approximate
06:19PM 24.4382 -89.8002 146° Southeast  Level FlightAware Approximate
06:20PM 24.3399 -89.7282 146° Southeast  Level FlightAware Approximate
06:21PM 24.2417 -89.6564 146° Southeast  Level FlightAware Approximate
06:22PM 24.1434 -89.5847 146° Southeast  Level FlightAware Approximate
06:23PM 24.0451 -89.5129 145° Southeast  Level FlightAware Approximate
06:24PM 23.9489 -89.4379 145° Southeast  Level FlightAware Approximate
06:25PM 23.8527 -89.3630 145° Southeast  Level FlightAware Approximate
06:26PM 23.7564 -89.2883 145° Southeast  Level FlightAware Approximate
06:27PM 23.6590 -89.2154 146° Southeast  Level FlightAware Approximate
06:28PM 23.5614 -89.1427 146° Southeast  Level FlightAware Approximate
06:29PM 23.4639 -89.0702 146° Southeast  Level FlightAware Approximate
06:30PM 23.3663 -88.9977 146° Southeast  Level FlightAware Approximate
06:31PM 23.2686 -88.9254 146° Southeast  Level FlightAware Approximate
06:32PM 23.1709 -88.8532 146° Southeast  Level FlightAware Approximate
06:32PM 22.8590 -88.6210 145° Southeast 436 502 35,000  Level FlightAware
06:33PM 23.0746 -88.7789 145° Southeast  Level FlightAware Approximate
06:33PM 22.7880 -88.5690 146° Southeast 436 502 35,000  Level FlightAware
06:33PM 22.7330 -88.5280 145° Southeast 436 502 35,000  Level FlightAware
06:34PM 22.6450 -88.4640 146° Southeast 436 502 35,000  Level FlightAware
06:35PM 22.5740 -88.4110 145° Southeast 436 502 35,000 -1,320 Level FlightAware
06:35PM 22.5070 -88.3490 139° Southeast 437 503 33,100 -2,460 Descending FlightAware
06:36PM 22.4170 -88.2640 139° Southeast 426 490 30,900 -2,040 Descending FlightAware
06:37PM 22.3740 -88.2230 139° Southeast 420 483 29,900 -2,160 Descending FlightAware
06:38PM 22.3050 -88.1580 139° Southeast 418 481 28,100 -2,340 Descending FlightAware
06:38PM 22.2370 -88.0950 139° Southeast 408 470 26,500 -2,040 Descending FlightAware
06:39PM 22.1970 -88.0570 139° Southeast 402 463 25,600 -1,980 Descending FlightAware
06:40PM 22.1410 -88.0040 139° Southeast 393 452 24,300 -2,100 Descending FlightAware
06:40PM 22.0790 -87.9460 139° Southeast 384 442 22,600 -2,100 Descending FlightAware
06:41PM 22.0270 -87.8970 139° Southeast 382 440 21,400 -1,860 Descending FlightAware
06:42PM 21.9750 -87.8490 139° Southeast 375 432 20,200 -1,800 Descending FlightAware
06:42PM 21.9250 -87.8020 139° Southeast 367 422 19,000 -1,920 Descending FlightAware
06:43PM 21.8610 -87.7430 139° Southeast 360 414 17,500 -1,860 Descending FlightAware
06:44PM 21.8030 -87.6890 139° Southeast 353 406 16,100 -1,740 Descending FlightAware
06:45PM 21.7550 -87.6440 139° Southeast 346 398 15,000 -1,680 Descending FlightAware
06:45PM 21.7130 -87.6050 139° Southeast 341 392 14,000 -1,680 Descending FlightAware
06:46PM 21.6630 -87.5590 139° Southeast 335 386 12,800 -1,680 Descending FlightAware
06:47PM 21.6090 -87.5080 139° Southeast 328 377 11,500 -1,620 Descending FlightAware
06:47PM 21.5600 -87.4630 139° Southeast 324 373 10,400 -1,080 Descending FlightAware
06:48PM 21.5120 -87.4180 139° Southeast 297 342 10,000 -780 Descending FlightAware
06:49PM 21.4860 -87.3940 139° Southeast 284 327 9,500 -1,320 Descending FlightAware
06:49PM 21.4610 -87.3710 139° Southeast 282 325 8,900 -1,440 Descending FlightAware
06:49PM 21.4300 -87.3420 139° Southeast 279 321 8,200 -1,380 Descending FlightAware
06:50PM 21.4030 -87.3170 139° Southeast 278 320 7,600 -1,200 Descending FlightAware
06:50PM 21.3790 -87.2960 141° Southeast 275 316 7,100 -1,500 Descending FlightAware
06:51PM 21.3430 -87.2620 139° Southeast 273 314 6,200 -1,560 Descending FlightAware
06:51PM 21.3200 -87.2410 140° Southeast 270 311 5,700 -1,200 Descending FlightAware
06:52PM 21.3050 -87.2270 139° Southeast 269 310 5,400 -1,320 Descending FlightAware
06:52PM 21.2770 -87.2010 139° Southeast 268 308 4,700 -1,320 Descending FlightAware
06:53PM 21.2510 -87.1780 140° Southeast 265 305 4,200 -900 Descending FlightAware
06:53PM 21.2400 -87.1670 137° Southeast 260 299 4,100 -480 Descending FlightAware
06:53PM 21.2180 -87.1420 133° Southeast 238 274 3,900 -120 Descending FlightAware
06:54PM 21.2010 -87.1150 124° Southeast 236 272 4,000 60 Climbing FlightAware
06:54PM 21.1820 -87.0850 124° Southeast 237 273 4,000 -240 Level FlightAware
06:55PM 21.1650 -87.0580 124° Southeast 227 261 3,800 -600 Descending FlightAware
06:55PM 21.1580 -87.0470 124° Southeast 224 258 3,600 -1,140 Descending FlightAware
06:55PM 21.1440 -87.0240 123° Southeast 215 247 3,100 -1,200 Descending FlightAware
06:56PM 21.1280 -86.9990 124° Southeast 209 241 2,500 -1,140 Descending FlightAware
06:56PM 21.1210 -86.9870 122° Southeast 207 238 2,300 -900 Descending FlightAware
06:56PM 21.1060 -86.9640 125° Southeast 187 215 1,900 -960 Descending FlightAware
06:57PM 21.0960 -86.9470 122° Southeast 168 193 1,500 -840 Descending FlightAware
06:57PM 21.0870 -86.9340 127° Southeast 156 180 1,200 -900 Descending FlightAware
06:58PM 21.0720 -86.9090 123° Southeast 153 176 600 -900 Descending FlightAware
06:58PM 21.0640 -86.8970 126° Southeast 155 178 400 -660 Descending FlightAware
06:59PM 21.0570 -86.8850 122° Southeast 152 175 100 -720 Descending FlightAware